Latest Weather Observations for Cape Naturaliste

IDW60801

Issued at 5:05 pm WST Friday 28 November 2014 (issued every 30 minutes, with the page automatically refreshed every 10 minutes)

About weather observations | Map of weather stations | Latest weather observations for WA | Other Formats
Station Details ID: 009519 Name: CAPE NATURALISTE Lat: -33.54 Lon: 115.02 Height: 109.0 m
Data from the previous 72 hours. | See also: Recent months at Cape Naturaliste
Date/Time
WST
Temp
°C
App
Temp
°C
Dew
Point
Rel
Hum
%
Delta-T
°C
Wind Press
QNH
hPa
Press
MSL
hPa
Rain
since 9 am
mm
Dir
 
Spd
km/h
Gust
km/h
Spd
kts
Gust
kts
28/05:00pm 17.8 12.3 14.7 82 1.8 SSW 37 48 20 26 1012.2 1012.0 0.0
28/04:30pm 18.2 13.1 14.7 80 2.0 SSW 35 48 19 26 1012.0 1011.8 0.0
28/04:00pm 17.9 12.6 14.2 79 2.1 SSW 35 46 19 25 1011.8 1011.6 0.0
28/03:30pm 19.2 14.6 15.1 77 2.4 SSW 33 44 18 24 1011.5 1011.3 0.0
28/03:00pm 19.1 14.2 15.2 78 2.3 SSW 35 46 19 25 1011.4 1011.2 0.0
28/02:30pm 19.5 14.6 15.2 76 2.5 SSW 35 52 19 28 1011.3 1011.1 0.0
28/02:00pm 20.1 15.2 15.3 74 2.8 SSW 35 52 19 28 1011.4 1011.2 0.0
28/01:30pm 19.7 13.7 15.4 76 2.6 SSW 41 54 22 29 1011.2 1011.0 0.0
28/01:00pm 19.9 14.6 15.3 75 2.7 SSW 37 50 20 27 1011.1 1010.9 0.0
28/12:30pm 20.6 15.6 16.0 75 2.8 SSW 37 48 20 26 1010.8 1010.6 0.0
28/12:00pm 21.1 16.9 16.1 73 3.0 SSW 33 43 18 23 1010.6 1010.4 0.0
28/11:39am 20.8 15.8 16.2 75 2.8 SSW 37 56 20 30 1010.8 1010.6 0.0
28/11:30am 20.5 15.0 15.7 74 2.9 SSW 39 48 21 26 1010.9 1010.7 0.0
28/11:00am 21.2 16.4 16.6 75 2.8 SSW 37 52 20 28 1010.6 1010.4 0.0
28/10:30am 21.0 16.5 16.4 75 2.8 SSW 35 46 19 25 1010.5 1010.2 0.0
28/10:00am 20.7 16.1 16.1 75 2.8 SSW 35 46 19 25 1010.4 1010.1 0.0
28/09:30am 20.6 16.6 16.2 76 2.7 SSW 32 41 17 22 1010.3 1010.0 0.0
28/09:00am 20.2 16.5 16.0 77 2.5 SSW 30 39 16 21 1010.2 1009.9 9.8
28/08:30am 20.0 16.0 16.2 79 2.3 SSW 32 41 17 22 1010.3 1010.0 9.8
28/08:00am 19.2 15.2 16.1 82 1.9 SSW 32 41 17 22 1010.5 1010.2 9.8
28/07:30am 18.9 14.9 16.1 84 1.7 SSW 32 41 17 22 1010.5 1010.2 9.8
28/07:00am 18.5 14.2 15.9 85 1.5 SSW 33 43 18 23 1010.5 1010.2 9.8
28/06:30am 18.4 15.2 16.2 87 1.3 SSW 28 37 15 20 1010.3 1010.0 9.8
28/06:00am 17.8 14.9 16.0 89 1.1 SSW 26 35 14 19 1010.3 1010.0 9.8
28/05:30am 17.1 13.5 15.3 89 1.1 SSW 28 35 15 19 1010.2 1009.9 9.8
28/05:00am 17.1 13.2 15.4 90 1.0 SSW 30 37 16 20 1010.1 1009.8 9.8
28/04:30am 17.4 14.3 15.7 90 1.0 SSW 26 35 14 19 1009.9 1009.6 9.8
28/04:00am 17.2 15.8 15.5 90 1.0 SSW 17 22 9 12 1009.8 1009.5 9.8
28/03:30am 17.4 16.1 15.7 90 1.0 SSW 17 20 9 11 1009.8 1009.5 9.8
28/03:00am 17.5 15.8 15.8 90 1.0 SSW 19 22 10 12 1009.8 1009.5 9.8
28/02:30am 17.6 16.3 15.9 90 1.0 S 17 24 9 13 1009.9 1009.6 9.8
28/02:00am 17.5 16.6 15.8 90 1.0 SSW 15 24 8 13 1009.9 1009.6 9.8
28/01:30am 17.3 15.9 15.6 90 1.0 SSW 17 26 9 14 1009.7 1009.4 9.8
28/01:00am 17.3 16.3 15.6 90 1.0 SSW 15 20 8 11 1009.9 1009.6 9.8
28/12:30am 17.1 14.7 15.4 90 1.0 SSW 22 28 12 15 1009.6 1009.3 9.8
28/12:00am 17.1 14.7 15.4 90 1.0 SSW 22 28 12 15 1009.8 1009.5 9.6
 
Date/Time
WST
Temp
°C
App
Temp
°C
Dew
Point
Rel
Hum
%
Delta-T
°C
Wind Press
QNH
hPa
Press
MSL
hPa
Rain
since 9 am
mm
Dir
 
Spd
km/h
Gust
km/h
Spd
kts
Gust
kts
27/11:30pm 17.0 14.5 15.2 89 1.1 SSW 22 30 12 16 1009.8 1009.5 9.6
27/11:00pm 17.0 15.5 15.2 89 1.1 S 17 22 9 12 1010.1 1009.8 9.6
27/10:30pm 17.0 15.5 15.2 89 1.1 SSW 17 24 9 13 1010.3 1010.0 9.6
27/10:00pm 17.4 15.6 15.4 88 1.2 SSW 19 24 10 13 1010.4 1010.1 9.6
27/09:30pm 17.9 16.1 15.9 88 1.2 SSW 20 24 11 13 1010.4 1010.1 9.6
27/09:00pm 18.2 16.0 16.0 87 1.3 SSW 22 30 12 16 1010.6 1010.4 9.6
27/08:30pm 18.3 15.2 15.7 85 1.5 SSW 26 35 14 19 1010.3 1010.0 9.6
27/08:00pm 18.4 16.0 15.3 82 1.8 SSW 22 26 12 14 1010.1 1009.8 9.6
27/07:30pm 18.4 17.2 14.1 76 2.5 SSW 13 20 7 11 1010.0 1009.7 9.6
27/07:00pm 19.4 18.7 13.3 68 3.5 WSW 9 11 5 6 1010.1 1009.8 9.6
27/06:30pm 20.5 21.0 13.9 66 3.8 E 4 6 2 3 1010.2 1009.9 9.6
27/06:00pm 21.0 21.4 15.3 70 3.4 E 7 11 4 6 1010.2 1009.9 9.6
27/05:30pm 21.1 20.6 15.9 72 3.1 E 13 17 7 9 1010.3 1010.0 9.6
27/05:00pm 21.2 20.2 15.7 71 3.3 ENE 15 20 8 11 1010.3 1010.0 9.6
27/04:30pm 22.6 22.2 16.2 67 3.9 E 13 17 7 9 1010.0 1009.7 9.6
27/04:00pm 23.1 23.9 15.9 64 4.4 E 6 9 3 5 1010.3 1010.0 9.6
27/03:30pm 22.6 22.6 17.3 72 3.3 ESE 13 15 7 8 1010.5 1010.2 9.6
27/03:00pm 21.9 21.7 17.7 77 2.6 E 15 20 8 11 1010.9 1010.7 9.6
27/02:30pm 21.7 21.1 18.5 82 2.0 E 19 22 10 12 1011.2 1011.0 9.6
27/02:00pm 20.7 19.4 18.1 85 1.6 ENE 22 26 12 14 1011.5 1011.3 9.6
27/01:30pm 20.9 20.8 18.7 87 1.4 E 17 22 9 12 1011.4 1011.2 9.6
27/01:00pm 19.1 18.6 16.9 87 1.3 E 15 19 8 10 1011.1 1010.9 9.6
27/12:30pm 18.8 19.7 16.6 87 1.3 E 7 11 4 6 1011.7 1011.5 8.0
27/12:00pm 18.4 17.6 16.0 86 1.4 NE 15 20 8 11 1012.0 1011.8 6.6
27/11:30am 19.2 17.6 16.6 85 1.6 E 20 24 11 13 1012.5 1012.3 6.6
27/11:00am 20.4 19.4 18.0 86 1.5 E 20 28 11 15 1012.4 1012.2 6.6
27/10:30am 19.4 18.0 17.0 86 1.5 ESE 20 26 11 14 1012.4 1012.2 6.4
27/10:00am 18.3 16.5 15.6 84 1.6 ESE 19 24 10 13 1012.4 1012.2 6.0
27/09:30am 18.2 15.8 14.3 78 2.3 ESE 20 28 11 15 1012.6 1012.4 3.6
27/09:00am 20.6 18.5 14.7 69 3.5 E 19 26 10 14 1012.2 1012.0 2.6
27/08:30am 21.6 20.4 15.0 66 3.9 ESE 15 20 8 11 1011.8 1011.6 2.6
27/08:00am 20.5 17.3 15.3 72 3.1 ESE 26 35 14 19 1011.4 1011.2 2.6
27/07:30am 20.3 17.9 15.3 73 3.0 ESE 22 30 12 16 1011.5 1011.3 2.6
27/07:00am 19.1 16.2 15.0 77 2.4 ESE 24 30 13 16 1011.6 1011.4 2.6
27/06:30am 18.8 15.6 15.3 80 2.1 ESE 26 35 14 19 1011.5 1011.3 2.6
27/06:00am 18.5 15.6 15.2 81 1.9 ESE 24 30 13 16 1011.3 1011.1 2.6
27/05:30am 17.9 14.9 14.8 82 1.8 ESE 24 32 13 17 1011.0 1010.8 2.6
27/05:00am 18.0 14.6 14.7 81 1.9 ESE 26 32 14 17 1011.0 1010.8 2.6
27/04:30am 18.2 14.8 14.7 80 2.0 ESE 26 32 14 17 1010.8 1010.6 2.6
27/04:00am 18.4 15.1 14.9 80 2.0 ESE 26 33 14 18 1010.6 1010.4 2.6
27/03:30am 18.5 15.1 14.8 79 2.2 ESE 26 35 14 19 1010.6 1010.4 2.6
27/03:00am 18.6 14.9 14.9 79 2.2 ESE 28 35 15 19 1010.5 1010.2 2.6
27/02:30am 18.6 14.4 14.7 78 2.3 ESE 30 39 16 21 1010.3 1010.0 2.6
27/02:00am 18.5 13.7 14.6 78 2.3 ESE 33 44 18 24 1010.1 1009.8 2.6
27/01:30am 18.7 13.8 14.2 75 2.6 ESE 33 43 18 23 1010.0 1009.7 2.6
27/01:00am 19.1 14.6 13.9 72 3.0 ESE 30 41 16 22 1010.0 1009.7 2.6
27/12:30am 19.2 15.1 13.8 71 3.1 ESE 28 37 15 20 1010.0 1009.7 2.6
27/12:00am 19.0 14.4 13.6 71 3.1 ESE 30 39 16 21 1010.1 1009.8 2.6
 
Date/Time
WST
Temp
°C
App
Temp
°C
Dew
Point
Rel
Hum
%
Delta-T
°C
Wind Press
QNH
hPa
Press
MSL
hPa
Rain
since 9 am
mm
Dir
 
Spd
km/h
Gust
km/h
Spd
kts
Gust
kts
26/11:30pm 19.0 13.9 13.8 72 3.0 ESE 33 54 18 29 1009.8 1009.5 2.6
26/11:27pm 18.9 13.8 13.7 72 3.0 ESE 33 54 18 29 1009.7 1009.4 2.6
26/11:00pm 19.2 12.6 13.8 71 3.1 ESE 41 56 22 30 1009.3 1009.1 2.6
26/10:30pm 19.1 12.2 13.9 72 3.0 ESE 43 59 23 32 1009.3 1009.1 2.6
26/10:00pm 18.9 12.5 14.4 75 2.6 ESE 41 59 22 32 1010.3 1010.0 2.6
26/09:56pm 18.9 12.6 14.6 76 2.5 ESE 41 59 22 32 1010.4 1010.1 2.6
26/09:30pm 17.9 13.3 14.6 81 1.9 SE 32 44 17 24 1011.6 1011.4 2.6
26/09:00pm 17.6 13.7 14.3 81 1.9 SE 28 41 15 22 1012.5 1012.3 2.6
26/08:30pm 18.0 14.7 15.1 83 1.7 SSE 26 41 14 22 1012.3 1012.1 2.6
26/08:19pm 17.7 13.2 15.0 84 1.6 S 32 44 17 24 1012.0 1011.8 2.6
26/08:00pm 17.4 12.0 14.9 85 1.5 SSW 37 48 20 26 1012.8 1012.6 2.4
26/07:30pm 17.6 13.9 14.9 84 1.6 SSW 28 35 15 19 1013.9 1013.7 2.4
26/07:00pm 18.0 12.9 14.9 82 1.8 SSW 35 48 19 26 1013.0 1012.8 2.2
26/06:30pm 18.8 14.1 15.9 83 1.7 SW 35 46 19 25 1013.2 1013.0 2.2
26/06:00pm 18.7 14.3 15.6 82 1.8 SSW 33 43 18 23 1012.1 1011.9 2.2
26/05:30pm 18.8 16.8 15.5 81 2.0 SSW 20 32 11 17 1011.4 1011.2 2.0
26/05:00pm 19.5 18.2 15.8 79 2.2 SW 17 24 9 13 1011.2 1011.0 1.6
26/04:30pm 20.0 18.7 15.8 77 2.5 S 17 20 9 11 1010.2 1009.9 1.6
26/04:00pm 18.7 15.3 14.8 78 2.3 SE 26 39 14 21 1009.1 1008.9 1.6
26/03:30pm 19.0 15.3 15.1 78 2.3 ESE 28 39 15 21 1010.4 1010.1 1.0
26/03:00pm 18.9 15.8 14.6 76 2.5 ESE 24 30 13 16 1011.1 1010.9 0.8
26/02:30pm 19.4 17.0 14.4 73 2.9 S 20 26 11 14 1011.3 1011.1 0.6
26/02:00pm 19.4 18.5 13.6 69 3.3 SSE 11 17 6 9 1012.8 1012.6 0.2
26/01:30pm 20.9 20.0 13.8 64 4.1 S 11 19 6 10 1012.9 1012.7 0.0
26/01:00pm 22.5 18.8 11.6 50 6.1 E 22 28 12 15 1012.4 1012.2 0.0
26/12:30pm 23.8 19.3 11.5 46 7.0 E 26 32 14 17 1012.5 1012.3 0.0
26/12:00pm 24.1 18.8 11.1 44 7.3 ESE 30 39 16 21 1012.3 1012.1 0.0
26/11:30am 22.1 17.0 13.2 57 5.1 E 32 39 17 21 1012.7 1012.5 0.0
26/11:00am 21.0 15.4 12.2 57 5.0 E 33 43 18 23 1012.7 1012.5 0.0
26/10:30am 20.3 14.1 11.5 57 4.9 ESE 35 44 19 24 1012.8 1012.6 0.0
26/10:00am 20.8 15.2 12.0 57 4.9 E 33 41 18 22 1013.4 1013.2 0.0
26/09:30am 20.4 14.4 12.1 59 4.7 E 35 43 19 23 1013.4 1013.2 0.0
26/09:00am 19.1 12.7 12.1 64 3.9 E 37 44 20 24 1013.4 1013.2 0.0
26/08:30am 18.3 11.3 11.4 64 3.8 ESE 39 50 21 27 1013.6 1013.4 0.0
26/08:00am 18.1 10.7 11.2 64 3.8 E 41 48 22 26 1013.8 1013.6 0.0
26/07:30am 17.9 10.6 11.5 66 3.5 E 41 50 22 27 1013.9 1013.7 0.0
26/07:00am 17.0 9.6 11.1 68 3.2 ESE 41 54 22 29 1014.0 1013.8 0.0
26/06:30am 17.0 9.1 10.8 67 3.3 ESE 43 50 23 27 1014.1 1013.9 0.0
26/06:00am 16.6 8.8 11.1 70 3.0 ESE 43 52 23 28 1014.3 1014.1 0.0
26/05:30am 16.3 8.4 10.8 70 2.9 ESE 43 56 23 30 1014.1 1013.9 0.0
26/05:00am 16.4 8.2 10.5 68 3.1 E 44 57 24 31 1014.1 1013.9 0.0
26/04:30am 16.4 8.8 10.5 68 3.1 E 41 52 22 28 1013.9 1013.7 0.0
26/04:00am 16.4 9.1 10.3 67 3.2 E 39 48 21 26 1013.9 1013.7 0.0
26/03:30am 16.5 9.5 10.1 66 3.4 ESE 37 46 20 25 1013.8 1013.6 0.0
26/03:00am 16.5 9.4 9.7 64 3.6 ESE 37 46 20 25 1014.0 1013.8 0.0
26/02:30am 17.0 9.5 9.4 61 4.0 E 39 50 21 27 1014.1 1013.9 0.0
26/02:00am 17.2 10.0 9.1 59 4.2 ESE 37 46 20 25 1014.1 1013.9 0.0
26/01:30am 17.7 10.2 9.3 58 4.4 ESE 39 48 21 26 1014.3 1014.1 0.0
26/01:00am 18.0 11.4 9.9 59 4.3 ESE 35 50 19 27 1014.6 1014.4 0.0
26/12:30am 18.4 11.7 9.7 57 4.6 ESE 35 46 19 25 1014.8 1014.6 0.0
26/12:00am 18.3 12.3 10.7 61 4.1 ESE 33 48 18 26 1015.0 1014.8 0.0
 
Date/Time
WST
Temp
°C
App
Temp
°C
Dew
Point
Rel
Hum
%
Delta-T
°C
Wind Press
QNH
hPa
Press
MSL
hPa
Rain
since 9 am
mm
Dir
 
Spd
km/h
Gust
km/h
Spd
kts
Gust
kts
25/11:30pm 18.1 12.2 11.2 64 3.8 ESE 33 43 18 23 1015.3 1015.1 0.0
25/11:00pm 18.3 12.5 11.6 65 3.7 ESE 33 44 18 24 1015.5 1015.3 0.0
25/10:30pm 18.6 12.5 11.9 65 3.7 SE 35 48 19 26 1015.4 1015.2 0.0
25/10:00pm 19.1 12.1 12.4 65 3.8 SE 41 56 22 30 1015.5 1015.3 0.0
25/09:30pm 19.2 12.5 12.2 64 3.9 SE 39 56 21 30 1015.6 1015.4 0.0
25/09:03pm 19.5 13.2 12.3 63 4.0 SE 37 56 20 30 1015.4 1015.2 0.0
25/09:00pm 19.5 12.8 12.3 63 4.0 SE 39 56 21 30 1015.3 1015.1 0.0
25/08:30pm 19.7 13.4 12.2 62 4.2 SSE 37 50 20 27 1015.2 1015.0 0.0
25/08:00pm 20.0 13.4 11.5 58 4.7 SSE 37 50 20 27 1015.1 1014.9 0.0
25/07:30pm 20.3 14.4 11.0 55 5.1 SSE 33 46 18 25 1015.3 1015.1 0.0
25/07:00pm 20.9 15.2 11.0 53 5.5 SSE 32 46 17 25 1015.5 1015.3 0.0
25/06:30pm 21.8 16.0 10.9 50 6.0 SSE 32 43 17 23 1015.6 1015.4 0.0
25/06:00pm 23.8 19.2 11.2 45 7.1 S 26 33 14 18 1015.8 1015.6 0.0
25/05:30pm 25.0 19.9 10.5 40 8.1 S 28 37 15 20 1015.8 1015.6 0.0

Other Formats:

Comma delimited format used in spreadsheet applications
http://www.bom.gov.au/fwo/IDW60801/IDW60801.94600.axf

JavaScript Object Notation format (JSON) in row-major order
http://www.bom.gov.au/fwo/IDW60801/IDW60801.94600.json